x

West Orca Bay - 8nm Nw Of Hinchinbrook Is , Ak (46060) Wave Buoy

3:50am - Fri 21st Jul 2017 All times are AKDT. -8 hours from GMT.

  • Sig Wave height 1.3ft
  • Swell Direction
  • Peak Period 9s
  • Average Period 7s
  • Wind
    9mph, 11mph gusts
  • Sea Temp 56°f
  • Air Temp 57°f
  • Sea Pressure 1015mb
  • West Orca Bay - 8nm Nw Of Hinchinbrook  Is , Ak
  • West Orca Bay - 8nm Nw Of Hinchinbrook  Is , Ak

More Historic Weather Station data

Upgrade to MSW Pro to gain access to the past 30 days of data for over 8000 Wavebouys and Weather Stations around the globe.

Join Pro

Comparision Forecast

View Surf forecast
   
Fri 07/21 3:50am 1.3ft 9s 7s 9 11 mph 1015mb 56f 57f
2:50am 1.3ft 9s 7s 7 9 mph 1015.2mb 56f 56f
1:50am 1ft 8s 6s 7 7 mph 1015.2mb 56f 57f
12:50am 1ft 8s 6s 2 2 mph 1015.2mb 57f 57f
Thu 07/20 11:50pm 1.3ft 7s 6s 4 4 mph 1014.9mb 57f 58f
10:50pm 1.3ft 7s 6s 2 4 mph 1014.7mb 55f 56f
9:50pm 1.3ft 7s 6s 4 7 mph 1014.6mb 56f 57f
8:50pm 1.6ft 7s 6s 4 7 mph 1014.4mb 57f 57f
7:50pm 1.3ft 7s 6s 4 4 mph 1014.3mb 56f 57f
6:50pm 1.3ft 8s 6s 4 7 mph 1014.3mb 57f 57f
5:50pm 1.3ft 8s 5s 4 7 mph 1014.3mb 57f 57f
4:50pm 1.3ft 8s 5s 4 7 mph 1014.2mb 57f 57f
3:50pm 1.3ft 8s 5s 7 9 mph 1014.1mb 57f 57f
2:50pm 1.6ft 8s 6s 4 7 mph 1014.3mb 56f 56f
1:50pm 1.6ft 8s 6s 4 4 mph 1014.2mb 56f 56f
12:50pm 1.6ft 8s 5s 7 9 mph 1014.2mb 55f 55f
11:50am 1.6ft 8s 6s 7 9 mph 1014.1mb 55f 55f
10:50am 2.5ft 8s 5s 9 11 mph 1013.9mb 55f 55f
9:50am 2.5ft 7s 5s 4 7 mph 1013.7mb 55f 54f
8:50am 2.5ft 8s 5s 7 9 mph 1013.5mb 55f 54f
7:50am 2.5ft 7s 5s 11 16 mph 1013.6mb 55f 54f
6:50am 2ft 7s 5s 9 11 mph 1013.4mb 55f 55f
5:50am 2ft 7s 5s 9 11 mph 1013.3mb 55f 55f
4:50am 2ft 8s 5s 11 13 mph 1013.3mb 55f 55f
3:50am 2ft 8s 4s 9 9 mph 1013.2mb 55f 55f
2:50am 1.6ft 8s 4s 18 20 mph 1013.1mb 55f 55f
1:50am 2ft 8s 4s 11 13 mph 1013mb 55f 55f
12:50am 2.5ft 8s 4s 18 25 mph 1012.7mb 55f 55f
Wed 07/19 11:50pm 1.3ft 8s 4s 18 22 mph 1012.7mb 55f 54f
10:50pm 2ft 8s 4s 11 13 mph 1012.6mb 55f 54f
9:50pm 2ft 8s 4s 18 20 mph 1012.6mb 55f 53f
8:50pm 2.5ft 8s 4s 11 13 mph 1012.6mb 55f 55f
7:50pm 3ft 8s 5s 13 18 mph 1012.6mb 55f 55f
6:50pm 3ft 8s 5s 11 13 mph 1012.7mb 55f 54f
5:50pm 3ft 8s 4s 16 20 mph 1012.8mb 55f 55f
4:50pm 3ft 8s 5s 18 20 mph 1012.8mb 55f 55f
3:50pm 2.5ft 8s 4s 13 18 mph 1012.8mb 55f 56f
2:50pm 3ft 8s 5s 16 18 mph 1012.7mb 55f 55f
1:50pm 2.5ft 8s 4s 13 16 mph 1012.8mb 55f 55f
12:50pm 3ft 8s 5s 13 18 mph 1012.7mb 55f 55f
11:50am 3ft 8s 4s 16 18 mph 1012.6mb 55f 55f
10:50am 2.5ft 8s 4s 18 22 mph 1012.3mb 55f 55f
9:50am 2.5ft 3s 4s 16 20 mph 1012.2mb 55f 55f
8:50am 2.5ft 4s 4s 18 22 mph 1012.1mb 55f 56f
7:50am 2.5ft 4s 4s 20 27 mph 1011.9mb 55f 55f
6:50am 2ft 3s 3s 18 22 mph 1012.1mb 55f 55f
5:50am 2.5ft 4s 3s 20 22 mph 1012.4mb 55f 55f
4:50am 2.5ft 4s 3s 20 25 mph 1012.8mb 55f 55f
3:50am 2.5ft 3s 3s 22 27 mph 1012.8mb 56f 55f
2:50am  -   -   -  20 25 mph 1013.1mb 55f 55f
1:50am 1.6ft 3s 3s 18 22 mph 1013.2mb 56f 54f
12:50am 1.6ft 3s 3s 18 20 mph 1013.1mb 56f 54f
Tue 07/18 11:50pm 1.3ft 3s 3s 16 18 mph 1013.4mb 57f 54f
10:50pm 1.6ft 3s 3s 18 22 mph 1013.5mb 57f 55f
9:50pm 2ft 3s 3s 18 20 mph 1013.4mb 57f 55f
8:50pm 1.3ft 3s 3s 18 22 mph 1013.5mb 57f 55f
7:50pm 1ft 3s 3s 16 18 mph 1013.9mb 57f 55f
6:50pm 1ft 3s 3s 13 16 mph 1014.6mb 57f 55f
5:50pm 1.3ft 3s 3s 13 16 mph 1015.1mb 57f 55f
4:50pm 1ft 3s 3s 13 16 mph 1015.6mb 57f 55f
3:50pm 1.3ft 3s 3s 11 13 mph 1016.2mb 57f 55f
2:50pm 1ft 3s 3s 13 18 mph 1016.4mb 57f 55f
1:50pm 1.3ft 3s 3s 13 18 mph 1016.7mb 57f 55f
12:50pm 1ft 3s 3s 13 18 mph 1016.9mb 57f 55f
11:50am  -   -   -  13 16 mph 1017.1mb 57f 55f
10:50am 1ft 13s 3s 13 16 mph 1017.3mb 57f 55f
9:50am  -   -   -  13 16 mph 1017.6mb 57f 55f
8:50am 0.7ft  -  4s 9 11 mph 1018mb 57f 55f
7:50am 0.7ft  -  5s 9 11 mph 1018.2mb 57f 55f
6:50am 0.7ft  -  5s 7 7 mph 1018.7mb 56f 55f
5:50am 0.7ft  -  6s 4 4 mph 1019.1mb 57f 55f
4:50am 0.7ft  -  6s 2 4 mph 1019.7mb 57f 55f
3:50am 0.7ft  -  5s 7 7 mph 1020mb 57f 56f
2:50am 0.7ft  -  6s 7 9 mph 1020.5mb 57f 56f
1:50am 0.7ft  -  7s 4 7 mph 1020.8mb 58f 55f
12:50am 0.7ft  -  6s 4 7 mph 1021mb 58f 55f
Mon 07/17 11:50pm 0.7ft  -  6s 7 7 mph 1021.2mb 58f 55f
10:50pm 0.7ft  -  6s 7 7 mph 1021.3mb 58f 55f
9:50pm 0.7ft  -  6s 4 7 mph 1021.5mb 58f 56f
8:50pm 0.7ft  -  5s 2 4 mph 1021.7mb 58f 56f
7:50pm 0.7ft  -  4s 2 4 mph 1022mb 58f 56f
6:50pm 0.7ft  -  4s 7 7 mph 1022.3mb 58f 56f
5:50pm 1ft 13s 3s 7 7 mph 1022.9mb 58f 55f
4:50pm 1ft 13s 3s 9 9 mph 1023.3mb 58f 56f
3:50pm 0.7ft  -  4s 9 11 mph 1023.6mb 58f 55f
2:50pm 0.7ft  -  4s 7 9 mph 1024mb 58f 55f
1:50pm 0.7ft  -  5s 7 7 mph 1024.2mb 58f 55f